createdAt,value
2019-04-26T00:01:34.006Z,44.14
2019-04-26T00:05:39.263Z,44.68
2019-04-26T00:09:43.068Z,44.56
2019-04-26T00:13:54.119Z,44.58
2019-04-26T00:17:59.338Z,45.15
2019-04-26T00:22:02.900Z,46.36
2019-04-26T00:26:07.072Z,47.91
2019-04-26T00:30:12.105Z,48.51
2019-04-26T00:34:17.486Z,49.27
2019-04-26T00:38:22.318Z,51.04
2019-04-26T00:42:26.492Z,49.73
2019-04-26T00:46:32.028Z,46.09
2019-04-26T00:50:36.485Z,45.16
2019-04-26T00:54:40.923Z,45.75
2019-04-26T00:58:44.497Z,49.27
2019-04-26T01:02:53.228Z,48.34
2019-04-26T01:06:58.365Z,47.70
2019-04-26T01:11:01.845Z,47.98
2019-04-26T01:15:07.016Z,47.71
2019-04-26T01:19:11.747Z,46.76
2019-04-26T01:23:18.783Z,46.95
2019-04-26T01:27:25.775Z,47.91
2019-04-26T01:31:31.411Z,48.14
2019-04-26T01:35:34.918Z,50.41
2019-04-26T01:39:41.183Z,50.69
2019-04-26T01:44:04.287Z,48.97
2019-04-26T01:48:12.532Z,50.95
2019-04-26T01:52:16.285Z,49.45
2019-04-26T01:56:23.461Z,49.94
2019-04-26T02:00:31.789Z,51.92
2019-04-26T02:04:40.237Z,49.08
2019-04-26T02:08:43.873Z,54.01
2019-04-26T02:12:49.152Z,53.32
2019-04-26T02:16:53.168Z,54.33
2019-04-26T02:21:06.259Z,55.85
2019-04-26T02:25:10.123Z,57.80
2019-04-26T02:29:19.214Z,58.03
2019-04-26T02:33:23.157Z,58.32
2019-04-26T02:37:28.879Z,59.66
2019-04-26T02:41:35.315Z,58.76
2019-04-26T02:45:59.742Z,59.46
2019-04-26T02:50:07.380Z,58.51
2019-04-26T02:54:13.959Z,59.73
2019-04-26T02:58:20.485Z,59.45
2019-04-26T03:02:24.783Z,59.62
2019-04-26T03:06:34.269Z,58.19
2019-04-26T03:10:40.590Z,56.61
2019-04-26T03:14:51.763Z,59.67
2019-04-26T03:19:00.512Z,60.45
2019-04-26T03:23:45.943Z,60.84
2019-04-26T03:28:08.277Z,60.35
2019-04-26T03:32:17.477Z,61.23
2019-04-26T03:36:44.326Z,61.41
2019-04-26T03:41:16.820Z,61.38
2019-04-26T03:45:25.897Z,61.38
2019-04-26T03:49:42.077Z,60.65
2019-04-26T03:53:52.863Z,62.12
2019-04-26T03:58:10.310Z,63.27
2019-04-26T04:02:24.189Z,63.00
2019-04-26T04:06:31.272Z,63.08
2019-04-26T04:10:50.077Z,63.05
2019-04-26T04:15:06.483Z,63.46
2019-04-26T04:19:54.987Z,63.03
2019-04-26T04:24:01.526Z,62.67
2019-04-26T04:28:30.709Z,62.41
2019-04-26T04:33:00.125Z,63.51
2019-04-26T04:37:06.165Z,63.02
2019-04-26T04:41:23.141Z,63.05
2019-04-26T04:45:55.530Z,62.95
2019-04-26T04:50:10.074Z,62.64
2019-04-26T04:54:33.268Z,62.01
2019-04-26T04:58:55.017Z,62.51
2019-04-26T05:03:06.403Z,62.90
2019-04-26T05:07:26.551Z,62.30
2019-04-26T05:11:36.246Z,62.54
2019-04-26T05:15:50.699Z,62.67
2019-04-26T05:20:24.762Z,61.83
2019-04-26T05:24:49.151Z,62.49
2019-04-26T05:29:23.119Z,60.48
2019-04-26T05:33:32.485Z,60.76
2019-04-26T05:37:55.188Z,59.72
2019-04-26T05:42:24.366Z,61.06
2019-04-26T05:46:59.516Z,59.71
2019-04-26T05:51:16.546Z,59.69
2019-04-26T05:55:39.855Z,59.10
2019-04-26T06:00:27.594Z,58.14
2019-04-26T06:04:45.055Z,55.44
2019-04-26T06:09:28.027Z,53.99
2019-04-26T06:14:24.605Z,52.69
2019-04-26T06:18:57.896Z,53.26
2019-04-26T06:23:25.918Z,53.35
2019-04-26T06:27:56.999Z,52.85
2019-04-26T06:32:15.954Z,51.93
2019-04-26T06:36:24.244Z,52.23
2019-04-26T06:40:45.463Z,51.92
2019-04-26T06:45:11.910Z,50.50
2019-04-26T06:49:35.152Z,48.57
2019-04-26T06:53:47.664Z,45.95
2019-04-26T06:58:02.757Z,45.84
2019-04-26T07:02:21.106Z,43.92
2019-04-26T07:06:35.234Z,42.80
2019-04-26T07:11:06.941Z,42.40
2019-04-26T07:15:32.930Z,42.45
2019-04-26T07:20:06.147Z,43.75
2019-04-26T07:24:38.835Z,43.89
2019-04-26T07:29:06.948Z,42.11
2019-04-26T07:33:33.095Z,41.88
2019-04-26T07:38:04.803Z,39.50
2019-04-26T07:42:45.164Z,37.12
2019-04-26T07:47:18.782Z,32.02
2019-04-26T07:51:27.908Z,34.56
2019-04-26T07:55:40.281Z,33.03
2019-04-26T08:00:13.062Z,34.46
2019-04-26T08:04:20.768Z,31.79
2019-04-26T08:08:27.490Z,29.47
2019-04-26T08:12:33.921Z,30.48
2019-04-26T08:17:05.258Z,31.45
2019-04-26T08:21:17.372Z,31.96
2019-04-26T08:25:24.068Z,33.10
2019-04-26T08:29:33.338Z,30.84
2019-04-26T08:33:48.223Z,32.40
2019-04-26T08:37:49.870Z,35.38
2019-04-26T08:41:55.600Z,31.26
2019-04-26T08:46:03.786Z,29.98
2019-04-26T08:50:16.268Z,26.27
2019-04-26T08:54:24.057Z,27.05
2019-04-26T08:58:29.628Z,33.34
2019-04-26T09:02:40.966Z,33.23
2019-04-26T09:07:07.255Z,32.44
2019-04-26T09:11:25.602Z,30.76
2019-04-26T09:15:40.700Z,28.00
2019-04-26T09:19:44.340Z,29.06
2019-04-26T09:24:01.465Z,31.82
2019-04-26T09:28:06.944Z,31.87
2019-04-26T09:32:12.068Z,30.57
2019-04-26T09:36:18.057Z,27.84
2019-04-26T09:40:22.712Z,26.67
2019-04-26T09:44:37.683Z,26.67
2019-04-26T09:48:47.047Z,30.45
2019-04-26T09:52:54.719Z,28.85
2019-04-26T09:56:58.248Z,29.12
2019-04-26T10:01:01.913Z,29.27
2019-04-26T10:05:11.984Z,31.23
2019-04-26T10:09:17.382Z,32.48
2019-04-26T10:13:32.523Z,30.06
2019-04-26T10:17:36.397Z,29.78
2019-04-26T10:21:39.956Z,29.06
2019-04-26T10:25:47.387Z,29.47
2019-04-26T10:29:49.173Z,28.85
2019-04-26T10:33:53.039Z,28.53
2019-04-26T10:37:56.836Z,28.79
2019-04-26T10:42:00.400Z,30.05
2019-04-26T10:46:05.079Z,33.69
2019-04-26T10:50:10.416Z,36.12
2019-04-26T10:54:15.566Z,35.06
2019-04-26T10:58:23.435Z,39.21
2019-04-26T11:02:26.998Z,40.04
2019-04-26T11:06:30.487Z,38.64
2019-04-26T11:10:47.699Z,37.02
2019-04-26T11:14:40.748Z,39.53
2019-04-26T11:18:44.231Z,38.63
2019-04-26T11:22:48.041Z,38.55
2019-04-26T11:26:51.521Z,40.82
2019-04-26T11:30:57.366Z,41.12
2019-04-26T11:35:00.748Z,40.03
2019-04-26T11:39:07.462Z,40.18
2019-04-26T11:43:11.046Z,39.39
2019-04-26T11:47:14.839Z,38.74
2019-04-26T11:51:18.433Z,40.00
2019-04-26T11:55:25.349Z,42.49
2019-04-26T11:59:30.492Z,43.69
2019-04-26T12:03:33.345Z,45.72
2019-04-26T12:07:38.467Z,46.46
2019-04-26T12:11:49.543Z,46.68
2019-04-26T12:15:48.386Z,46.76
2019-04-26T12:19:53.331Z,46.63
2019-04-26T12:23:58.837Z,46.36
2019-04-26T12:28:06.145Z,45.64
2019-04-26T12:32:08.404Z,46.10
2019-04-26T12:36:14.403Z,45.15
2019-04-26T12:40:19.537Z,46.16
2019-04-26T12:44:25.530Z,46.09
2019-04-26T12:48:29.361Z,45.88
2019-04-26T12:52:33.488Z,46.20
2019-04-26T12:56:37.044Z,46.77
2019-04-26T13:00:53.340Z,47.30
2019-04-26T13:04:46.356Z,47.37
2019-04-26T13:08:51.523Z,47.07
2019-04-26T13:13:09.030Z,47.79
2019-04-26T13:17:35.748Z,47.61
2019-04-26T13:21:38.884Z,47.22
2019-04-26T13:25:42.443Z,47.69
2019-04-26T13:29:48.205Z,47.07
2019-04-26T13:33:51.227Z,46.99
2019-04-26T13:37:54.725Z,47.86
2019-04-26T13:42:04.419Z,49.19
2019-04-26T13:46:10.965Z,48.49
2019-04-26T13:50:16.074Z,48.76
2019-04-26T13:54:21.102Z,49.57
2019-04-26T13:58:25.549Z,48.86
2019-04-26T14:02:29.556Z,48.74
2019-04-26T14:06:33.316Z,49.52
2019-04-26T14:10:36.851Z,50.18
2019-04-26T14:14:40.627Z,49.75
2019-04-26T14:18:44.242Z,49.87
2019-04-26T14:22:52.360Z,51.06
2019-04-26T14:26:57.490Z,51.16
2019-04-26T14:31:01.200Z,51.37
2019-04-26T14:35:05.842Z,50.86
2019-04-26T14:39:10.644Z,51.73
2019-04-26T14:43:18.244Z,51.19
2019-04-26T14:47:20.854Z,50.38
2019-04-26T14:51:24.359Z,49.97
2019-04-26T14:55:27.844Z,51.36
2019-04-26T14:59:46.917Z,51.55
2019-04-26T15:04:07.800Z,51.87
2019-04-26T15:08:13.203Z,51.76
2019-04-26T15:12:16.831Z,52.16
2019-04-26T15:16:22.781Z,51.95
2019-04-26T15:20:26.313Z,51.75
2019-04-26T15:24:30.067Z,51.78
2019-04-26T15:28:35.003Z,52.23
2019-04-26T15:32:38.497Z,52.08
2019-04-26T15:36:43.523Z,51.88
2019-04-26T15:41:11.448Z,52.88
2019-04-26T15:45:27.141Z,52.82
2019-04-26T15:49:36.569Z,52.85
2019-04-26T15:53:37.496Z,52.67
2019-04-26T15:57:41.010Z,52.79
2019-04-26T16:01:47.655Z,52.73
2019-04-26T16:05:50.223Z,54.72
2019-04-26T16:09:57.342Z,56.33
2019-04-26T16:13:58.927Z,56.99
2019-04-26T16:18:04.171Z,57.41
2019-04-26T16:22:07.764Z,58.29
2019-04-26T16:26:12.941Z,58.41
2019-04-26T16:30:24.260Z,58.98
2019-04-26T16:34:29.812Z,59.44
2019-04-26T16:38:37.668Z,59.96
2019-04-26T16:42:41.145Z,59.88
2019-04-26T16:46:44.942Z,59.85
2019-04-26T16:50:48.434Z,60.81
2019-04-26T16:54:53.072Z,62.53
2019-04-26T16:58:56.574Z,62.92
2019-04-26T17:03:06.444Z,63.96
2019-04-26T17:07:05.559Z,63.14
2019-04-26T17:11:14.068Z,62.70
2019-04-26T17:15:21.049Z,63.74
2019-04-26T17:19:24.621Z,62.99
2019-04-26T17:23:38.894Z,61.10
2019-04-26T17:27:44.577Z,61.13
2019-04-26T17:31:47.921Z,59.94
2019-04-26T17:35:51.696Z,60.52
2019-04-26T17:39:55.535Z,60.28
2019-04-26T17:44:07.982Z,59.88
2019-04-26T17:48:06.702Z,59.75
2019-04-26T17:52:11.646Z,59.75
2019-04-26T17:56:15.552Z,60.35
2019-04-26T18:00:26.766Z,60.06
2019-04-26T18:04:33.030Z,59.41
2019-04-26T18:08:38.870Z,59.79
2019-04-26T18:12:40.675Z,59.59
2019-04-26T18:16:43.849Z,60.56
2019-04-26T18:20:49.044Z,60.18
2019-04-26T18:24:52.581Z,64.08
2019-04-26T18:28:56.202Z,65.36
2019-04-26T18:32:59.848Z,67.19
2019-04-26T18:37:06.983Z,67.18
2019-04-26T18:41:09.158Z,66.10
2019-04-26T18:45:13.905Z,66.87
2019-04-26T18:49:22.511Z,67.11
2019-04-26T18:53:30.580Z,66.56
2019-04-26T18:57:33.528Z,66.70
2019-04-26T19:01:40.893Z,66.99
2019-04-26T19:05:43.154Z,67.74
2019-04-26T19:09:58.888Z,67.38
2019-04-26T19:13:56.474Z,67.69
2019-04-26T19:18:05.497Z,67.65
2019-04-26T19:22:15.549Z,67.03
2019-04-26T19:26:15.130Z,67.26
2019-04-26T19:30:21.474Z,66.70
2019-04-26T19:34:26.111Z,67.77
2019-04-26T19:38:30.221Z,67.78
2019-04-26T19:42:33.699Z,68.14
2019-04-26T19:46:44.263Z,68.02
2019-04-26T19:50:55.352Z,68.10
2019-04-26T19:55:11.435Z,68.51
2019-04-26T19:59:15.089Z,69.01
2019-04-26T20:03:19.395Z,69.44
2019-04-26T20:07:24.220Z,70.37
2019-04-26T20:11:28.123Z,71.50
2019-04-26T20:15:31.951Z,71.95
2019-04-26T20:19:37.499Z,71.17
2019-04-26T20:23:43.719Z,70.50
2019-04-26T20:27:46.437Z,70.18
2019-04-26T20:31:54.314Z,70.75
2019-04-26T20:36:03.334Z,71.36
2019-04-26T20:40:18.819Z,71.47
2019-04-26T20:44:10.230Z,72.13
2019-04-26T20:48:14.312Z,72.05
2019-04-26T20:52:23.183Z,72.50
2019-04-26T20:56:24.336Z,72.89
2019-04-26T21:00:27.961Z,73.58
2019-04-26T21:04:38.050Z,73.10
2019-04-26T21:08:36.692Z,73.80
2019-04-26T21:12:41.794Z,74.39
2019-04-26T21:16:49.554Z,74.31
2019-04-26T21:20:52.344Z,75.24
2019-04-26T21:25:00.260Z,74.98
2019-04-26T21:29:20.482Z,75.27
2019-04-26T21:33:32.701Z,75.62
2019-04-26T21:37:35.938Z,75.65
2019-04-26T21:41:46.747Z,75.72
2019-04-26T21:45:49.187Z,75.72
2019-04-26T21:49:58.808Z,75.59
2019-04-26T21:53:58.193Z,75.65
2019-04-26T21:58:02.716Z,75.61
2019-04-26T22:02:08.795Z,74.64
2019-04-26T22:06:12.271Z,75.20
2019-04-26T22:10:17.398Z,75.39
2019-04-26T22:14:23.593Z,75.55
2019-04-26T22:18:28.759Z,75.48
2019-04-26T22:22:37.532Z,75.79
2019-04-26T22:26:46.769Z,75.98
2019-04-26T22:30:47.375Z,75.82
2019-04-26T22:34:50.865Z,75.53
2019-04-26T22:38:55.629Z,75.41
2019-04-26T22:43:10.847Z,76.21
2019-04-26T22:47:17.088Z,75.50
2019-04-26T22:51:20.636Z,75.55
2019-04-26T22:55:27.435Z,75.32
2019-04-26T22:59:29.616Z,75.41
2019-04-26T23:03:36.562Z,75.51
2019-04-26T23:07:39.340Z,75.54
2019-04-26T23:11:46.678Z,76.70
2019-04-26T23:16:00.565Z,76.39
2019-04-26T23:20:07.825Z,76.48
2019-04-26T23:24:17.562Z,76.08
2019-04-26T23:28:16.897Z,76.72
2019-04-26T23:32:20.471Z,75.86
2019-04-26T23:36:24.199Z,75.32
2019-04-26T23:40:28.988Z,76.36
2019-04-26T23:44:33.127Z,75.85
2019-04-26T23:48:36.681Z,75.85
2019-04-26T23:52:40.160Z,75.93
2019-04-26T23:56:43.857Z,75.97
